createdAt,value
2019-02-22T00:02:27.125Z,6.06
2019-02-22T00:04:55.540Z,6.08
2019-02-22T00:07:23.934Z,6.06
2019-02-22T00:09:52.353Z,5.99
2019-02-22T00:12:20.754Z,5.89
2019-02-22T00:14:49.174Z,5.89
2019-02-22T00:17:17.626Z,5.98
2019-02-22T00:19:48.476Z,5.99
2019-02-22T00:22:16.193Z,6.02
2019-02-22T00:24:44.592Z,5.95
2019-02-22T00:27:12.991Z,5.85
2019-02-22T00:29:41.737Z,5.78
2019-02-22T00:32:10.136Z,5.81
2019-02-22T00:34:38.983Z,6.02
2019-02-22T00:37:07.367Z,6.07
2019-02-22T00:39:35.764Z,6.05
2019-02-22T00:42:04.177Z,6.02
2019-02-22T00:44:32.557Z,5.92
2019-02-22T00:47:00.982Z,5.85
2019-02-22T00:49:29.392Z,5.76
2019-02-22T00:51:57.798Z,5.69
2019-02-22T00:54:26.202Z,5.64
2019-02-22T00:56:54.602Z,5.61
2019-02-22T00:59:23.052Z,5.60
2019-02-22T01:01:51.454Z,5.66
2019-02-22T01:04:19.856Z,5.87
2019-02-22T01:06:48.274Z,5.98
2019-02-22T01:09:16.673Z,6.04
2019-02-22T01:11:45.085Z,6.09
2019-02-22T01:14:13.480Z,6.15
2019-02-22T01:16:41.882Z,6.37
2019-02-22T01:19:10.290Z,6.40
2019-02-22T01:21:38.689Z,6.38
2019-02-22T01:24:07.104Z,6.32
2019-02-22T01:26:35.503Z,6.27
2019-02-22T01:29:03.910Z,6.16
2019-02-22T01:31:32.326Z,6.06
2019-02-22T01:34:00.729Z,6.01
2019-02-22T01:36:29.129Z,5.99
2019-02-22T01:38:57.985Z,6.04
2019-02-22T01:41:26.465Z,6.08
2019-02-22T01:43:54.878Z,6.20
2019-02-22T01:46:23.303Z,6.33
2019-02-22T01:48:51.706Z,6.42
2019-02-22T01:51:20.119Z,6.48
2019-02-22T01:53:48.518Z,6.52
2019-02-22T01:56:16.915Z,6.62
2019-02-22T01:58:48.796Z,6.63
2019-02-22T02:01:15.450Z,6.66
2019-02-22T02:03:43.850Z,6.78
2019-02-22T02:06:12.250Z,6.74
2019-02-22T02:08:40.667Z,6.65
2019-02-22T02:11:09.066Z,6.60
2019-02-22T02:13:37.476Z,6.67
2019-02-22T02:16:05.866Z,6.78
2019-02-22T02:18:34.283Z,6.94
2019-02-22T02:21:02.748Z,7.05
2019-02-22T02:23:31.147Z,7.09
2019-02-22T02:25:59.550Z,7.21
2019-02-22T02:28:27.954Z,7.20
2019-02-22T02:30:56.350Z,7.15
2019-02-22T02:33:24.767Z,7.06
2019-02-22T02:35:53.170Z,6.97
2019-02-22T02:38:21.562Z,6.87
2019-02-22T02:40:49.964Z,6.75
2019-02-22T02:43:18.371Z,6.63
2019-02-22T02:45:46.785Z,6.59
2019-02-22T02:48:15.189Z,6.63
2019-02-22T02:50:43.592Z,6.73
2019-02-22T02:53:12.001Z,6.87
2019-02-22T02:55:40.464Z,6.95
2019-02-22T02:58:08.901Z,7.01
2019-02-22T03:00:37.377Z,7.11
2019-02-22T03:03:05.775Z,7.17
2019-02-22T03:05:35.827Z,7.14
2019-02-22T03:08:04.225Z,7.11
2019-02-22T03:10:32.649Z,6.99
2019-02-22T03:13:01.049Z,6.86
2019-02-22T03:15:29.438Z,6.75
2019-02-22T03:17:57.851Z,6.67
2019-02-22T03:20:26.252Z,6.66
2019-02-22T03:22:54.679Z,6.73
2019-02-22T03:25:23.439Z,6.70
2019-02-22T03:27:51.835Z,6.67
2019-02-22T03:30:20.249Z,6.55
2019-02-22T03:32:48.967Z,6.48
2019-02-22T03:35:17.390Z,6.51
2019-02-22T03:37:45.795Z,6.50
2019-02-22T03:40:14.207Z,6.42
2019-02-22T03:42:42.888Z,6.35
2019-02-22T03:45:11.365Z,6.29
2019-02-22T03:47:39.783Z,6.27
2019-02-22T03:50:08.624Z,6.24
2019-02-22T03:52:44.693Z,6.20
2019-02-22T03:55:13.091Z,6.22
2019-02-22T03:57:41.773Z,6.24
2019-02-22T04:00:11.354Z,6.27
2019-02-22T04:02:39.761Z,6.29
2019-02-22T04:05:08.842Z,6.20
2019-02-22T04:07:37.238Z,6.14
2019-02-22T04:10:07.499Z,6.10
2019-02-22T04:12:35.882Z,6.05
2019-02-22T04:15:06.791Z,6.00
2019-02-22T04:17:35.214Z,5.94
2019-02-22T04:20:04.092Z,5.94
2019-02-22T04:22:32.489Z,5.94
2019-02-22T04:25:00.903Z,5.99
2019-02-22T04:27:29.298Z,6.09
2019-02-22T04:29:57.741Z,6.21
2019-02-22T04:32:26.135Z,6.27
2019-02-22T04:34:54.538Z,6.28
2019-02-22T04:37:22.934Z,6.26
2019-02-22T04:39:51.341Z,6.13
2019-02-22T04:42:19.762Z,6.03
2019-02-22T04:44:48.421Z,5.98
2019-02-22T04:47:16.827Z,5.94
2019-02-22T04:49:45.235Z,5.88
2019-02-22T04:52:13.643Z,5.90
2019-02-22T04:54:42.072Z,5.91
2019-02-22T04:57:10.475Z,5.90
2019-02-22T04:59:38.862Z,5.86
2019-02-22T05:02:07.273Z,5.77
2019-02-22T05:04:35.674Z,5.71
2019-02-22T05:07:04.107Z,5.65
2019-02-22T05:09:32.506Z,5.63
2019-02-22T05:12:10.398Z,5.61
2019-02-22T05:14:31.033Z,5.57
2019-02-22T05:16:59.712Z,5.56
2019-02-22T05:19:28.096Z,5.55
2019-02-22T05:21:56.499Z,5.56
2019-02-22T05:24:24.886Z,5.70
2019-02-22T05:26:53.289Z,5.89
2019-02-22T05:29:21.743Z,6.01
2019-02-22T05:31:50.100Z,6.16
2019-02-22T05:34:18.847Z,6.34
2019-02-22T05:36:47.534Z,6.53
2019-02-22T05:39:19.382Z,6.64
2019-02-22T05:41:46.066Z,6.69
2019-02-22T05:44:14.513Z,6.80
2019-02-22T05:46:42.909Z,6.88
2019-02-22T05:49:11.310Z,6.92
2019-02-22T05:51:39.719Z,6.92
2019-02-22T05:54:08.124Z,6.93
2019-02-22T05:56:36.537Z,6.79
2019-02-22T05:59:04.939Z,6.79
2019-02-22T06:01:33.351Z,6.76
2019-02-22T06:04:02.067Z,6.68
2019-02-22T06:06:30.463Z,6.59
2019-02-22T06:08:58.883Z,6.52
2019-02-22T06:11:27.297Z,6.43
2019-02-22T06:13:55.692Z,6.38
2019-02-22T06:16:24.162Z,6.37
2019-02-22T06:18:52.570Z,6.38
2019-02-22T06:21:21.450Z,6.38
2019-02-22T06:23:49.861Z,6.33
2019-02-22T06:26:18.268Z,6.23
2019-02-22T06:28:47.063Z,6.20
2019-02-22T06:31:15.505Z,6.15
2019-02-22T06:33:43.921Z,6.13
2019-02-22T06:36:12.324Z,6.10
2019-02-22T06:38:40.726Z,6.10
2019-02-22T06:41:09.137Z,6.32
2019-02-22T06:43:37.530Z,6.51
2019-02-22T06:46:06.218Z,6.62
2019-02-22T06:48:34.623Z,6.67
2019-02-22T06:51:03.038Z,6.73
2019-02-22T06:53:31.430Z,6.83
2019-02-22T06:55:59.834Z,6.95
2019-02-22T06:58:28.275Z,7.03
2019-02-22T07:00:56.666Z,7.04
2019-02-22T07:03:25.065Z,7.04
2019-02-22T07:05:53.477Z,7.08
2019-02-22T07:08:21.877Z,7.10
2019-02-22T07:11:01.990Z,7.16
2019-02-22T07:13:30.389Z,7.26
2019-02-22T07:15:58.792Z,7.29
2019-02-22T07:18:27.197Z,7.26
2019-02-22T07:20:55.600Z,7.24
2019-02-22T07:23:24.419Z,7.25
2019-02-22T07:25:52.824Z,7.33
2019-02-22T07:28:21.218Z,7.55
2019-02-22T07:30:49.931Z,7.71
2019-02-22T07:33:18.330Z,7.82
2019-02-22T07:35:46.765Z,7.88
2019-02-22T07:38:15.243Z,7.95
2019-02-22T07:40:43.642Z,8.03
2019-02-22T07:43:12.051Z,8.08
2019-02-22T07:45:40.446Z,8.07
2019-02-22T07:48:08.880Z,8.06
2019-02-22T07:50:37.558Z,8.00
2019-02-22T07:53:05.958Z,8.08
2019-02-22T07:55:34.365Z,8.08
2019-02-22T07:58:02.765Z,8.08
2019-02-22T08:00:32.255Z,8.06
2019-02-22T08:03:00.663Z,8.06
2019-02-22T08:05:29.063Z,8.11
2019-02-22T08:07:57.461Z,8.26
2019-02-22T08:10:26.346Z,8.55
2019-02-22T08:12:54.885Z,8.75
2019-02-22T08:15:23.279Z,8.90
2019-02-22T08:17:51.680Z,8.97
2019-02-22T08:20:20.095Z,8.98
2019-02-22T08:22:48.579Z,8.97
2019-02-22T08:25:17.061Z,9.04
2019-02-22T08:27:53.774Z,9.06
2019-02-22T08:30:15.922Z,9.08
2019-02-22T08:32:44.350Z,9.15
2019-02-22T08:35:12.817Z,9.25
2019-02-22T08:37:41.562Z,9.28
2019-02-22T08:40:10.837Z,9.31
2019-02-22T08:42:39.242Z,9.34
2019-02-22T08:45:09.892Z,9.36
2019-02-22T08:47:38.364Z,9.50
2019-02-22T08:50:08.113Z,9.72
2019-02-22T08:52:36.538Z,9.92
2019-02-22T08:55:06.284Z,10.15
2019-02-22T08:57:34.691Z,10.16
2019-02-22T09:00:03.391Z,10.07
2019-02-22T09:02:33.427Z,10.09
2019-02-22T09:05:01.851Z,10.21
2019-02-22T09:07:30.339Z,10.33
2019-02-22T09:09:58.745Z,10.59
2019-02-22T09:12:27.167Z,10.72
2019-02-22T09:14:55.609Z,10.79
2019-02-22T09:17:24.016Z,10.94
2019-02-22T09:19:52.472Z,11.24
2019-02-22T09:22:23.054Z,11.44
2019-02-22T09:24:51.000Z,11.49
2019-02-22T09:27:19.690Z,11.44
2019-02-22T09:29:58.495Z,11.44
2019-02-22T09:32:18.226Z,11.54
2019-02-22T09:34:46.637Z,11.66
2019-02-22T09:37:15.119Z,11.69
2019-02-22T09:39:43.545Z,11.64
2019-02-22T09:42:11.952Z,11.59
2019-02-22T09:44:40.357Z,11.55
2019-02-22T09:47:08.770Z,11.46
2019-02-22T09:49:37.181Z,11.39
2019-02-22T09:52:05.615Z,11.33
2019-02-22T09:54:34.290Z,11.36
2019-02-22T09:57:02.706Z,11.39
2019-02-22T09:59:31.530Z,11.43
2019-02-22T10:01:59.939Z,11.45
2019-02-22T10:04:28.476Z,11.47
2019-02-22T10:06:56.882Z,11.53
2019-02-22T10:09:25.281Z,11.66
2019-02-22T10:11:53.685Z,11.82
2019-02-22T10:14:22.167Z,11.94
2019-02-22T10:16:50.711Z,11.96
2019-02-22T10:19:19.117Z,12.00
2019-02-22T10:21:47.528Z,12.02
2019-02-22T10:24:15.937Z,12.04
2019-02-22T10:26:44.351Z,12.04
2019-02-22T10:29:12.765Z,12.04
2019-02-22T10:31:41.174Z,12.05
2019-02-22T10:34:09.874Z,12.07
2019-02-22T10:36:45.073Z,12.09
2019-02-22T10:39:08.464Z,12.07
2019-02-22T10:41:36.838Z,12.04
2019-02-22T10:44:05.247Z,11.96
2019-02-22T10:46:33.639Z,11.91
2019-02-22T10:49:03.021Z,11.88
2019-02-22T10:51:34.000Z,11.81
2019-02-22T10:54:01.588Z,11.82
2019-02-22T10:56:29.995Z,11.88
2019-02-22T10:58:58.406Z,11.98
2019-02-22T11:01:26.818Z,12.04
2019-02-22T11:03:55.226Z,12.19
2019-02-22T11:06:23.666Z,12.29
2019-02-22T11:08:52.081Z,12.38
2019-02-22T11:11:20.485Z,12.46
2019-02-22T11:13:48.909Z,12.52
2019-02-22T11:16:17.306Z,12.69
2019-02-22T11:18:45.749Z,12.88
2019-02-22T11:21:14.157Z,13.02
2019-02-22T11:23:42.559Z,13.12
2019-02-22T11:26:11.483Z,13.30
2019-02-22T11:28:39.874Z,13.50
2019-02-22T11:31:08.630Z,13.63
2019-02-22T11:33:37.029Z,13.70
2019-02-22T11:36:05.455Z,13.68
2019-02-22T11:38:33.883Z,13.71
2019-02-22T11:41:02.962Z,13.86
2019-02-22T11:43:31.399Z,13.89
2019-02-22T11:45:59.811Z,13.81
2019-02-22T11:48:28.226Z,13.70
2019-02-22T11:50:56.989Z,13.56
2019-02-22T11:53:25.405Z,13.48
2019-02-22T11:55:53.908Z,13.55
2019-02-22T11:58:22.619Z,13.66
2019-02-22T12:00:51.024Z,13.61
2019-02-22T12:03:24.692Z,13.49
2019-02-22T12:05:49.562Z,13.44
2019-02-22T12:08:17.993Z,13.31
2019-02-22T12:10:46.408Z,13.18
2019-02-22T12:13:14.820Z,13.03
2019-02-22T12:15:43.227Z,12.96
2019-02-22T12:18:11.645Z,12.90
2019-02-22T12:20:40.089Z,12.97
2019-02-22T12:23:08.512Z,12.98
2019-02-22T12:25:36.917Z,12.93
2019-02-22T12:28:05.326Z,12.92
2019-02-22T12:30:33.809Z,12.93
2019-02-22T12:33:02.227Z,13.01
2019-02-22T12:35:30.627Z,12.95
2019-02-22T12:37:59.035Z,13.11
2019-02-22T12:40:27.458Z,13.06
2019-02-22T12:42:55.868Z,12.97
2019-02-22T12:45:24.286Z,13.13
2019-02-22T12:47:52.685Z,13.30
2019-02-22T12:50:21.085Z,13.37
2019-02-22T12:52:49.500Z,13.36
2019-02-22T12:55:17.903Z,13.33
2019-02-22T12:57:46.745Z,13.29
2019-02-22T13:00:18.851Z,13.30
2019-02-22T13:02:47.296Z,13.28
2019-02-22T13:05:27.325Z,13.25
2019-02-22T13:07:55.731Z,13.25
2019-02-22T13:10:24.169Z,13.24
2019-02-22T13:12:52.581Z,13.27
2019-02-22T13:15:20.987Z,13.28
2019-02-22T13:17:49.394Z,13.25
2019-02-22T13:20:17.808Z,13.30
2019-02-22T13:22:46.304Z,13.14
2019-02-22T13:25:14.701Z,13.19
2019-02-22T13:27:43.107Z,13.26
2019-02-22T13:30:13.660Z,13.37
2019-02-22T13:32:42.061Z,13.43
2019-02-22T13:35:11.266Z,13.56
2019-02-22T13:37:39.857Z,13.84
2019-02-22T13:40:11.600Z,13.97
2019-02-22T13:42:40.022Z,14.01
2019-02-22T13:45:10.666Z,13.94
2019-02-22T13:47:39.143Z,13.92
2019-02-22T13:50:12.817Z,13.86
2019-02-22T13:52:41.297Z,13.83
2019-02-22T13:55:10.270Z,13.82
2019-02-22T13:57:38.719Z,13.85
2019-02-22T14:00:17.662Z,13.92
2019-02-22T14:02:46.067Z,13.92
2019-02-22T14:05:14.610Z,13.93
2019-02-22T14:07:51.444Z,13.84
2019-02-22T14:10:20.379Z,13.75
2019-02-22T14:12:49.252Z,13.66
2019-02-22T14:15:18.773Z,13.61
2019-02-22T14:17:47.396Z,13.60
2019-02-22T14:20:16.474Z,13.59
2019-02-22T14:22:45.146Z,13.61
2019-02-22T14:25:13.553Z,13.60
2019-02-22T14:27:42.243Z,13.63
2019-02-22T14:30:13.320Z,13.61
2019-02-22T14:32:41.702Z,13.52
2019-02-22T14:35:10.241Z,13.57
2019-02-22T14:37:38.649Z,13.64
2019-02-22T14:40:12.723Z,13.61
2019-02-22T14:42:41.118Z,13.56
2019-02-22T14:45:11.258Z,13.43
2019-02-22T14:47:39.750Z,13.37
2019-02-22T14:50:13.763Z,13.28
2019-02-22T14:52:42.177Z,13.24
2019-02-22T14:55:10.654Z,13.20
2019-02-22T14:57:39.054Z,13.19
2019-02-22T15:00:20.718Z,13.18
2019-02-22T15:02:49.194Z,13.10
2019-02-22T15:05:18.373Z,13.03
2019-02-22T15:07:46.847Z,13.04
2019-02-22T15:10:15.247Z,13.05
2019-02-22T15:12:43.723Z,13.05
2019-02-22T15:15:14.153Z,13.08
2019-02-22T15:17:44.223Z,13.16
2019-02-22T15:20:12.618Z,13.25
2019-02-22T15:22:41.019Z,13.23
2019-02-22T15:25:11.666Z,13.15
2019-02-22T15:27:40.061Z,13.09
2019-02-22T15:30:11.644Z,12.97
2019-02-22T15:32:40.022Z,12.93
2019-02-22T15:35:16.103Z,12.90
2019-02-22T15:37:44.570Z,12.81
2019-02-22T15:40:14.311Z,12.76
2019-02-22T15:42:42.711Z,12.74
2019-02-22T15:45:16.354Z,12.69
2019-02-22T15:47:44.845Z,12.68
2019-02-22T15:50:15.056Z,12.70
2019-02-22T15:52:43.829Z,12.72
2019-02-22T15:55:14.353Z,12.80
2019-02-22T15:57:42.368Z,12.77
2019-02-22T16:00:31.544Z,12.71
2019-02-22T16:02:59.944Z,12.65
2019-02-22T16:09:42.486Z,12.60
2019-02-22T16:12:11.191Z,12.47
2019-02-22T16:14:39.596Z,12.43
2019-02-22T16:17:08.013Z,12.39
2019-02-22T16:19:36.425Z,12.35
2019-02-22T16:22:04.836Z,12.34
2019-02-22T16:24:33.259Z,12.32
2019-02-22T16:27:04.446Z,12.30
2019-02-22T16:29:32.842Z,12.26
2019-02-22T16:32:01.524Z,12.25
2019-02-22T16:34:29.913Z,12.17
2019-02-22T16:36:58.352Z,12.14
2019-02-22T16:39:26.907Z,12.08
2019-02-22T16:41:55.315Z,12.03
2019-02-22T16:44:23.721Z,11.99
2019-02-22T16:46:52.396Z,11.96
2019-02-22T16:49:20.821Z,11.90
2019-02-22T16:51:49.217Z,11.88
2019-02-22T16:54:17.610Z,11.88
2019-02-22T16:56:47.666Z,11.86
2019-02-22T16:59:16.060Z,11.80
2019-02-22T17:01:44.488Z,11.74
2019-02-22T17:04:12.889Z,11.66
2019-02-22T17:06:41.297Z,11.54
2019-02-22T17:09:09.721Z,11.45
2019-02-22T17:11:38.127Z,11.36
2019-02-22T17:14:06.545Z,11.28
2019-02-22T17:16:45.221Z,11.26
2019-02-22T17:19:05.105Z,11.26
2019-02-22T17:21:33.674Z,11.23
2019-02-22T17:24:02.130Z,11.13
2019-02-22T17:26:30.557Z,11.05
2019-02-22T17:28:58.958Z,10.99
2019-02-22T17:31:27.677Z,10.94
2019-02-22T17:33:56.086Z,10.87
2019-02-22T18:44:39.492Z,8.08
2019-02-22T18:47:18.815Z,7.98
2019-02-22T18:49:38.072Z,7.85
2019-02-22T18:52:06.809Z,7.71
2019-02-22T18:54:35.202Z,7.54
2019-02-22T18:57:03.682Z,7.28
2019-02-22T18:59:32.081Z,7.06
2019-02-22T19:02:00.572Z,6.95
2019-02-22T19:04:28.987Z,6.91
2019-02-22T19:06:57.376Z,6.92
2019-02-22T19:09:25.804Z,7.13
2019-02-22T19:11:54.197Z,7.48
2019-02-22T19:14:22.599Z,7.69
2019-02-22T19:16:50.999Z,7.80
2019-02-22T19:19:19.465Z,7.84
2019-02-22T19:21:48.105Z,7.72
2019-02-22T19:24:16.654Z,7.62
2019-02-22T19:26:45.038Z,7.55
2019-02-22T19:29:13.610Z,7.46
2019-02-22T19:31:42.019Z,7.34
2019-02-22T19:34:10.501Z,7.20
2019-02-22T19:36:38.901Z,7.06
2019-02-22T19:39:07.305Z,6.94
2019-02-22T19:41:35.710Z,6.88
2019-02-22T19:44:04.183Z,6.88
2019-02-22T19:46:32.737Z,6.87
2019-02-22T19:49:01.193Z,6.80
2019-02-22T19:51:30.433Z,6.73
2019-02-22T19:53:58.849Z,6.60
2019-02-22T19:56:27.248Z,6.47
2019-02-22T19:58:55.738Z,6.34
2019-02-22T20:01:24.147Z,6.31
2019-02-22T20:03:52.537Z,6.34
2019-02-22T20:06:20.943Z,6.49
2019-02-22T20:08:49.339Z,6.72
2019-02-22T20:11:17.757Z,6.92
2019-02-22T20:13:46.154Z,7.03
2019-02-22T20:16:14.622Z,6.90
2019-02-22T20:18:44.702Z,6.67
2019-02-22T20:21:13.067Z,6.51
2019-02-22T20:23:41.666Z,6.33
2019-02-22T20:26:10.135Z,6.20
2019-02-22T20:28:38.537Z,6.09
2019-02-22T20:31:06.927Z,6.00
2019-02-22T20:33:35.394Z,5.89
2019-02-22T20:36:04.256Z,5.73
2019-02-22T20:38:32.619Z,5.61
2019-02-22T20:41:01.025Z,5.45
2019-02-22T20:43:29.425Z,5.37
2019-02-22T20:45:57.821Z,5.31
2019-02-22T20:48:26.568Z,5.34
2019-02-22T20:50:54.963Z,5.32
2019-02-22T20:53:23.363Z,5.32
2019-02-22T20:55:51.770Z,5.29
2019-02-22T20:58:20.417Z,5.25
2019-02-22T21:00:48.845Z,5.22
2019-02-22T21:03:17.248Z,5.27
2019-02-22T21:05:45.659Z,5.43
2019-02-22T21:08:14.053Z,5.51
2019-02-22T21:10:42.452Z,5.62
2019-02-22T21:13:10.859Z,5.51
2019-02-22T21:15:39.266Z,5.41
2019-02-22T21:18:16.000Z,5.39
2019-02-22T21:20:37.817Z,5.35
2019-02-22T21:23:06.217Z,5.37
2019-02-22T21:25:34.615Z,5.35
2019-02-22T21:28:03.017Z,5.31
2019-02-22T21:30:31.711Z,5.27
2019-02-22T21:33:00.107Z,5.10
2019-02-22T21:35:28.508Z,4.96
2019-02-22T21:37:56.916Z,4.83
2019-02-22T21:40:25.387Z,4.75
2019-02-22T21:42:54.189Z,4.71
2019-02-22T21:45:22.586Z,4.68
2019-02-22T21:47:55.559Z,4.64
2019-02-22T21:50:21.117Z,4.58
2019-02-22T21:52:49.578Z,4.56
2019-02-22T21:55:17.992Z,4.60
2019-02-22T21:57:46.394Z,4.56
2019-02-22T22:00:30.842Z,4.49
2019-02-22T22:02:59.244Z,4.41
2019-02-22T22:05:27.648Z,4.29
2019-02-22T22:07:56.082Z,4.24
2019-02-22T22:10:24.471Z,4.37
2019-02-22T22:12:52.889Z,4.44
2019-02-22T22:15:21.290Z,4.43
2019-02-22T22:17:49.698Z,4.36
2019-02-22T22:20:18.205Z,4.33
2019-02-22T22:22:47.063Z,4.33
2019-02-22T22:25:16.334Z,4.49
2019-02-22T22:27:44.714Z,4.64
2019-02-22T22:30:14.401Z,4.70
2019-02-22T22:32:42.970Z,4.67
2019-02-22T22:35:13.644Z,4.53
2019-02-22T22:37:42.440Z,4.36
2019-02-22T22:40:11.378Z,4.18
2019-02-22T22:42:39.787Z,4.04
2019-02-22T22:45:18.658Z,4.00
2019-02-22T22:47:47.025Z,3.98
2019-02-22T22:50:16.791Z,4.07
2019-02-22T22:52:45.190Z,4.22
2019-02-22T22:55:13.657Z,4.32
2019-02-22T22:57:42.062Z,4.35
2019-02-22T23:00:13.783Z,4.29
2019-02-22T23:02:42.328Z,4.09
2019-02-22T23:05:10.730Z,3.97
2019-02-22T23:07:39.193Z,3.83
2019-02-22T23:10:07.972Z,3.89
2019-02-22T23:12:36.372Z,3.90
2019-02-22T23:15:05.441Z,3.83
2019-02-22T23:17:33.842Z,3.75
2019-02-22T23:20:02.308Z,3.62
2019-02-22T23:22:30.710Z,3.51
2019-02-22T23:24:59.099Z,3.43
2019-02-22T23:27:27.509Z,3.43
2019-02-22T23:29:55.903Z,3.55
2019-02-22T23:32:24.296Z,3.56
2019-02-22T23:34:52.697Z,3.53
2019-02-22T23:37:21.095Z,3.45
2019-02-22T23:39:49.503Z,3.34
2019-02-22T23:42:17.910Z,3.19
2019-02-22T23:44:46.301Z,3.06
2019-02-22T23:47:14.710Z,3.08
2019-02-22T23:49:43.100Z,3.18
2019-02-22T23:52:11.566Z,3.32
2019-02-22T23:54:39.966Z,3.41
2019-02-22T23:57:08.366Z,3.43
2019-02-22T23:59:36.771Z,3.40
